Terminal Aerodrome Forecast
Issued by NWS El Paso, TX

Home | Current Version | Previous Version | Text Only | Print | Product List | Glossary On
Versions: 1 2 3 4 5 6 7 8 9 10 11 12 13 14 15
000
FTUS44 KEPZ 200540
TAFELP
TAF
KELP 200540Z 2006/2106 25011KT P6SM SCT060 SCT150 SCT200
     FM201500 23015G25KT P6SM BKN050 BKN120 BKN200
     FM201800 25025G35KT P6SM VCSH BKN030 BKN060
     FM210000 24025G35KT 6SM -SHRA BKN030 BKN090 OVC150=

USA.gov is the U.S. government's official web portal to all federal, state and local government web resources and services.